sensor_id;sensor_type;location;lat;lon;timestamp;temperature;humidity
35325;DHT22;35135;47.510;19.036;2022-07-23T00:01:23;30.70;39.50
35325;DHT22;35135;47.510;19.036;2022-07-23T00:03:52;30.70;39.60
35325;DHT22;35135;47.510;19.036;2022-07-23T00:06:26;30.70;39.60
35325;DHT22;35135;47.510;19.036;2022-07-23T00:08:58;30.70;39.60
35325;DHT22;35135;47.510;19.036;2022-07-23T00:11:32;30.60;39.60
35325;DHT22;35135;47.510;19.036;2022-07-23T00:13:59;30.60;39.70
35325;DHT22;35135;47.510;19.036;2022-07-23T00:16:27;30.60;39.60
35325;DHT22;35135;47.510;19.036;2022-07-23T00:18:54;30.60;39.80
35325;DHT22;35135;47.510;19.036;2022-07-23T00:21:25;30.60;39.80
35325;DHT22;35135;47.510;19.036;2022-07-23T00:23:54;30.60;39.70
35325;DHT22;35135;47.510;19.036;2022-07-23T00:26:21;30.60;39.60
35325;DHT22;35135;47.510;19.036;2022-07-23T00:28:50;30.60;39.50
35325;DHT22;35135;47.510;19.036;2022-07-23T00:31:30;30.60;39.50
35325;DHT22;35135;47.510;19.036;2022-07-23T00:33:59;30.50;39.40
35325;DHT22;35135;47.510;19.036;2022-07-23T00:36:29;30.50;39.40
35325;DHT22;35135;47.510;19.036;2022-07-23T00:38:57;30.50;39.50
35325;DHT22;35135;47.510;19.036;2022-07-23T00:41:25;30.40;39.50
35325;DHT22;35135;47.510;19.036;2022-07-23T00:43:52;30.40;39.90
35325;DHT22;35135;47.510;19.036;2022-07-23T00:46:23;30.40;40.50
35325;DHT22;35135;47.510;19.036;2022-07-23T00:48:52;30.40;41.00
35325;DHT22;35135;47.510;19.036;2022-07-23T00:51:21;30.40;41.00
35325;DHT22;35135;47.510;19.036;2022-07-23T00:53:53;30.30;41.40
35325;DHT22;35135;47.510;19.036;2022-07-23T00:56:20;30.30;42.10
35325;DHT22;35135;47.510;19.036;2022-07-23T00:58:51;30.30;42.20
35325;DHT22;35135;47.510;19.036;2022-07-23T01:01:21;30.30;42.30
35325;DHT22;35135;47.510;19.036;2022-07-23T01:03:51;30.30;42.30
35325;DHT22;35135;47.510;19.036;2022-07-23T01:06:23;30.20;42.20
35325;DHT22;35135;47.510;19.036;2022-07-23T01:08:52;30.20;42.30
35325;DHT22;35135;47.510;19.036;2022-07-23T01:11:26;30.20;42.40
35325;DHT22;35135;47.510;19.036;2022-07-23T01:13:56;30.20;42.60
35325;DHT22;35135;47.510;19.036;2022-07-23T01:16:23;30.10;42.50
35325;DHT22;35135;47.510;19.036;2022-07-23T01:18:50;30.10;42.40
35325;DHT22;35135;47.510;19.036;2022-07-23T01:21:18;30.10;42.60
35325;DHT22;35135;47.510;19.036;2022-07-23T01:23:49;30.10;42.30
35325;DHT22;35135;47.510;19.036;2022-07-23T01:26:18;30.10;42.20
35325;DHT22;35135;47.510;19.036;2022-07-23T01:28:46;30.10;42.10
35325;DHT22;35135;47.510;19.036;2022-07-23T01:31:18;30.10;42.20
35325;DHT22;35135;47.510;19.036;2022-07-23T01:33:48;30.10;42.00
35325;DHT22;35135;47.510;19.036;2022-07-23T01:36:22;30.10;41.80
35325;DHT22;35135;47.510;19.036;2022-07-23T01:38:53;30.10;41.80
35325;DHT22;35135;47.510;19.036;2022-07-23T01:41:24;30.10;41.50
35325;DHT22;35135;47.510;19.036;2022-07-23T01:43:53;30.10;41.30
35325;DHT22;35135;47.510;19.036;2022-07-23T01:46:22;30.10;41.20
35325;DHT22;35135;47.510;19.036;2022-07-23T01:48:54;30.10;41.10
35325;DHT22;35135;47.510;19.036;2022-07-23T01:51:27;30.10;41.10
35325;DHT22;35135;47.510;19.036;2022-07-23T01:53:59;30.20;41.00
35325;DHT22;35135;47.510;19.036;2022-07-23T01:56:33;30.10;40.80
35325;DHT22;35135;47.510;19.036;2022-07-23T01:59:00;30.10;40.80
35325;DHT22;35135;47.510;19.036;2022-07-23T02:01:27;30.10;40.90
35325;DHT22;35135;47.510;19.036;2022-07-23T02:03:56;30.00;41.00
35325;DHT22;35135;47.510;19.036;2022-07-23T02:06:25;30.00;41.00
35325;DHT22;35135;47.510;19.036;2022-07-23T02:08:57;30.00;41.30
35325;DHT22;35135;47.510;19.036;2022-07-23T02:11:25;30.00;41.30
35325;DHT22;35135;47.510;19.036;2022-07-23T02:14:02;29.90;41.40
35325;DHT22;35135;47.510;19.036;2022-07-23T02:16:32;29.90;41.50
35325;DHT22;35135;47.510;19.036;2022-07-23T02:19:02;29.90;41.50
35325;DHT22;35135;47.510;19.036;2022-07-23T02:21:30;29.90;41.50
35325;DHT22;35135;47.510;19.036;2022-07-23T02:23:58;29.90;41.50
35325;DHT22;35135;47.510;19.036;2022-07-23T02:26:26;29.90;41.50
35325;DHT22;35135;47.510;19.036;2022-07-23T02:28:55;29.90;41.80
35325;DHT22;35135;47.510;19.036;2022-07-23T02:31:24;29.90;41.70
35325;DHT22;35135;47.510;19.036;2022-07-23T02:33:54;29.90;41.60
35325;DHT22;35135;47.510;19.036;2022-07-23T02:36:24;29.90;41.50
35325;DHT22;35135;47.510;19.036;2022-07-23T02:38:59;29.90;41.30
35325;DHT22;35135;47.510;19.036;2022-07-23T02:41:27;29.90;41.20
35325;DHT22;35135;47.510;19.036;2022-07-23T02:43:55;29.80;41.10
35325;DHT22;35135;47.510;19.036;2022-07-23T02:46:24;29.80;41.10
35325;DHT22;35135;47.510;19.036;2022-07-23T02:48:54;29.90;41.10
35325;DHT22;35135;47.510;19.036;2022-07-23T02:51:23;29.80;41.00
35325;DHT22;35135;47.510;19.036;2022-07-23T02:53:49;29.80;40.90
35325;DHT22;35135;47.510;19.036;2022-07-23T02:56:17;29.70;40.80
35325;DHT22;35135;47.510;19.036;2022-07-23T02:58:50;29.70;41.00
35325;DHT22;35135;47.510;19.036;2022-07-23T03:01:22;29.70;41.10
35325;DHT22;35135;47.510;19.036;2022-07-23T03:03:51;29.60;40.90
35325;DHT22;35135;47.510;19.036;2022-07-23T03:06:19;29.60;40.90
35325;DHT22;35135;47.510;19.036;2022-07-23T03:08:52;29.60;40.80
35325;DHT22;35135;47.510;19.036;2022-07-23T03:11:21;29.50;40.80
35325;DHT22;35135;47.510;19.036;2022-07-23T03:13:51;29.50;40.90
35325;DHT22;35135;47.510;19.036;2022-07-23T03:16:19;29.50;40.90
35325;DHT22;35135;47.510;19.036;2022-07-23T03:18:48;29.40;40.90
35325;DHT22;35135;47.510;19.036;2022-07-23T03:21:23;29.50;41.00
35325;DHT22;35135;47.510;19.036;2022-07-23T03:23:51;29.40;41.00
35325;DHT22;35135;47.510;19.036;2022-07-23T03:26:26;29.40;41.10
35325;DHT22;35135;47.510;19.036;2022-07-23T03:28:58;29.40;41.30
35325;DHT22;35135;47.510;19.036;2022-07-23T03:31:28;29.40;41.50
35325;DHT22;35135;47.510;19.036;2022-07-23T03:34:03;29.40;41.60
35325;DHT22;35135;47.510;19.036;2022-07-23T03:36:32;29.30;41.90
35325;DHT22;35135;47.510;19.036;2022-07-23T03:39:01;29.30;42.30
35325;DHT22;35135;47.510;19.036;2022-07-23T03:41:30;29.30;42.60
35325;DHT22;35135;47.510;19.036;2022-07-23T03:43:59;29.30;42.70
35325;DHT22;35135;47.510;19.036;2022-07-23T03:46:31;29.30;42.90
35325;DHT22;35135;47.510;19.036;2022-07-23T03:49:00;29.30;43.10
35325;DHT22;35135;47.510;19.036;2022-07-23T03:51:49;29.30;43.30
35325;DHT22;35135;47.510;19.036;2022-07-23T03:54:19;29.30;43.50
35325;DHT22;35135;47.510;19.036;2022-07-23T03:56:48;29.30;43.50
35325;DHT22;35135;47.510;19.036;2022-07-23T03:59:17;29.30;43.40
35325;DHT22;35135;47.510;19.036;2022-07-23T04:01:46;29.20;43.30
35325;DHT22;35135;47.510;19.036;2022-07-23T04:04:13;29.30;43.20
35325;DHT22;35135;47.510;19.036;2022-07-23T04:06:41;29.30;42.90
35325;DHT22;35135;47.510;19.036;2022-07-23T04:09:11;29.30;42.70
35325;DHT22;35135;47.510;19.036;2022-07-23T04:11:40;29.30;42.60
35325;DHT22;35135;47.510;19.036;2022-07-23T04:14:09;29.30;42.60
35325;DHT22;35135;47.510;19.036;2022-07-23T04:16:38;29.30;42.80
35325;DHT22;35135;47.510;19.036;2022-07-23T04:19:06;29.30;43.00
35325;DHT22;35135;47.510;19.036;2022-07-23T04:21:36;29.30;43.10
35325;DHT22;35135;47.510;19.036;2022-07-23T04:24:10;29.20;43.40
35325;DHT22;35135;47.510;19.036;2022-07-23T04:26:38;29.30;43.60
35325;DHT22;35135;47.510;19.036;2022-07-23T04:29:07;29.30;43.80
35325;DHT22;35135;47.510;19.036;2022-07-23T04:31:36;29.30;43.90
35325;DHT22;35135;47.510;19.036;2022-07-23T04:34:03;29.30;43.60
35325;DHT22;35135;47.510;19.036;2022-07-23T04:36:32;29.30;43.70
35325;DHT22;35135;47.510;19.036;2022-07-23T04:39:01;29.30;44.00
35325;DHT22;35135;47.510;19.036;2022-07-23T04:41:31;29.30;43.90
35325;DHT22;35135;47.510;19.036;2022-07-23T04:44:02;29.30;43.90
35325;DHT22;35135;47.510;19.036;2022-07-23T04:46:30;29.40;44.50
35325;DHT22;35135;47.510;19.036;2022-07-23T04:48:58;29.40;44.10
35325;DHT22;35135;47.510;19.036;2022-07-23T04:51:27;29.40;44.10
35325;DHT22;35135;47.510;19.036;2022-07-23T04:53:57;29.40;44.20
35325;DHT22;35135;47.510;19.036;2022-07-23T04:56:25;29.40;44.40
35325;DHT22;35135;47.510;19.036;2022-07-23T04:58:53;29.40;44.30
35325;DHT22;35135;47.510;19.036;2022-07-23T05:01:23;29.40;44.40
35325;DHT22;35135;47.510;19.036;2022-07-23T05:03:52;29.40;44.20
35325;DHT22;35135;47.510;19.036;2022-07-23T05:06:25;29.40;44.00
35325;DHT22;35135;47.510;19.036;2022-07-23T05:08:55;29.50;44.20
35325;DHT22;35135;47.510;19.036;2022-07-23T05:11:29;29.50;44.10
35325;DHT22;35135;47.510;19.036;2022-07-23T05:13:57;29.50;44.30
35325;DHT22;35135;47.510;19.036;2022-07-23T05:16:25;29.50;44.00
35325;DHT22;35135;47.510;19.036;2022-07-23T05:18:52;29.60;44.20
35325;DHT22;35135;47.510;19.036;2022-07-23T05:21:21;29.60;44.50
35325;DHT22;35135;47.510;19.036;2022-07-23T05:23:49;29.60;44.60
35325;DHT22;35135;47.510;19.036;2022-07-23T05:26:23;29.70;44.40
35325;DHT22;35135;47.510;19.036;2022-07-23T05:28:50;29.70;44.90
35325;DHT22;35135;47.510;19.036;2022-07-23T05:31:17;29.70;44.80
35325;DHT22;35135;47.510;19.036;2022-07-23T05:33:48;29.70;45.10
35325;DHT22;35135;47.510;19.036;2022-07-23T05:36:15;29.80;44.70
35325;DHT22;35135;47.510;19.036;2022-07-23T05:38:42;29.80;45.30
35325;DHT22;35135;47.510;19.036;2022-07-23T05:41:17;29.80;45.20
35325;DHT22;35135;47.510;19.036;2022-07-23T05:43:46;29.80;44.90
35325;DHT22;35135;47.510;19.036;2022-07-23T05:46:13;29.90;44.90
35325;DHT22;35135;47.510;19.036;2022-07-23T05:48:42;29.90;45.00
35325;DHT22;35135;47.510;19.036;2022-07-23T05:51:35;29.90;44.50
35325;DHT22;35135;47.510;19.036;2022-07-23T05:54:04;29.90;44.30
35325;DHT22;35135;47.510;19.036;2022-07-23T05:56:33;30.00;45.00
35325;DHT22;35135;47.510;19.036;2022-07-23T05:59:05;30.00;44.50
35325;DHT22;35135;47.510;19.036;2022-07-23T06:01:33;30.00;44.80
35325;DHT22;35135;47.510;19.036;2022-07-23T06:04:06;30.00;44.30
35325;DHT22;35135;47.510;19.036;2022-07-23T06:06:33;30.10;44.20
35325;DHT22;35135;47.510;19.036;2022-07-23T06:09:02;30.10;44.40
35325;DHT22;35135;47.510;19.036;2022-07-23T06:11:32;30.10;44.30
35325;DHT22;35135;47.510;19.036;2022-07-23T06:14:00;30.10;43.90
35325;DHT22;35135;47.510;19.036;2022-07-23T06:16:29;30.10;43.80
35325;DHT22;35135;47.510;19.036;2022-07-23T06:19:03;30.20;43.80
35325;DHT22;35135;47.510;19.036;2022-07-23T06:21:37;30.20;44.00
35325;DHT22;35135;47.510;19.036;2022-07-23T06:24:04;30.20;43.40
35325;DHT22;35135;47.510;19.036;2022-07-23T06:26:31;30.20;43.20
35325;DHT22;35135;47.510;19.036;2022-07-23T06:29:00;30.30;44.70
35325;DHT22;35135;47.510;19.036;2022-07-23T06:31:28;30.30;44.00
35325;DHT22;35135;47.510;19.036;2022-07-23T06:33:57;30.30;44.20
35325;DHT22;35135;47.510;19.036;2022-07-23T06:36:25;30.30;44.00
35325;DHT22;35135;47.510;19.036;2022-07-23T06:38:54;30.30;43.60
35325;DHT22;35135;47.510;19.036;2022-07-23T06:41:25;30.30;43.20
35325;DHT22;35135;47.510;19.036;2022-07-23T06:43:58;30.30;42.90
35325;DHT22;35135;47.510;19.036;2022-07-23T06:46:33;30.30;42.90
35325;DHT22;35135;47.510;19.036;2022-07-23T06:49:02;30.30;42.80
35325;DHT22;35135;47.510;19.036;2022-07-23T06:51:30;30.40;42.70
35325;DHT22;35135;47.510;19.036;2022-07-23T06:53:56;30.30;42.70
35325;DHT22;35135;47.510;19.036;2022-07-23T06:56:23;30.30;43.40
35325;DHT22;35135;47.510;19.036;2022-07-23T06:58:50;30.40;43.60
35325;DHT22;35135;47.510;19.036;2022-07-23T07:01:23;30.40;43.50
35325;DHT22;35135;47.510;19.036;2022-07-23T07:03:55;30.40;43.50
35325;DHT22;35135;47.510;19.036;2022-07-23T07:06:23;30.40;43.90
35325;DHT22;35135;47.510;19.036;2022-07-23T07:08:52;30.40;43.60
35325;DHT22;35135;47.510;19.036;2022-07-23T07:11:20;30.40;43.20
35325;DHT22;35135;47.510;19.036;2022-07-23T07:13:51;30.50;43.70
35325;DHT22;35135;47.510;19.036;2022-07-23T07:16:18;30.50;43.10
35325;DHT22;35135;47.510;19.036;2022-07-23T07:18:45;30.50;43.20
35325;DHT22;35135;47.510;19.036;2022-07-23T07:21:14;30.50;42.30
35325;DHT22;35135;47.510;19.036;2022-07-23T07:23:41;30.50;43.50
35325;DHT22;35135;47.510;19.036;2022-07-23T07:26:08;30.50;44.00
35325;DHT22;35135;47.510;19.036;2022-07-23T07:28:41;30.60;44.20
35325;DHT22;35135;47.510;19.036;2022-07-23T07:31:10;30.50;44.40
35325;DHT22;35135;47.510;19.036;2022-07-23T07:33:41;30.60;43.50
35325;DHT22;35135;47.510;19.036;2022-07-23T07:36:13;30.60;42.50
35325;DHT22;35135;47.510;19.036;2022-07-23T07:38:47;30.70;42.10
35325;DHT22;35135;47.510;19.036;2022-07-23T07:41:19;30.70;41.80
35325;DHT22;35135;47.510;19.036;2022-07-23T07:43:51;30.80;41.90
35325;DHT22;35135;47.510;19.036;2022-07-23T07:46:20;30.90;42.70
35325;DHT22;35135;47.510;19.036;2022-07-23T07:48:53;30.90;43.00
35325;DHT22;35135;47.510;19.036;2022-07-23T07:51:22;30.90;42.40
35325;DHT22;35135;47.510;19.036;2022-07-23T07:53:51;30.90;42.10
35325;DHT22;35135;47.510;19.036;2022-07-23T07:56:20;30.90;41.80
35325;DHT22;35135;47.510;19.036;2022-07-23T07:58:49;31.00;42.00
35325;DHT22;35135;47.510;19.036;2022-07-23T08:01:16;31.00;42.00
35325;DHT22;35135;47.510;19.036;2022-07-23T08:03:47;31.00;42.40
35325;DHT22;35135;47.510;19.036;2022-07-23T08:06:16;31.00;42.30
35325;DHT22;35135;47.510;19.036;2022-07-23T08:08:49;31.00;42.40
35325;DHT22;35135;47.510;19.036;2022-07-23T08:11:16;31.10;42.00
35325;DHT22;35135;47.510;19.036;2022-07-23T08:13:43;31.10;42.00
35325;DHT22;35135;47.510;19.036;2022-07-23T08:16:12;31.00;42.10
35325;DHT22;35135;47.510;19.036;2022-07-23T08:18:43;31.10;41.20
35325;DHT22;35135;47.510;19.036;2022-07-23T08:21:12;31.10;41.00
35325;DHT22;35135;47.510;19.036;2022-07-23T08:23:42;31.10;41.20
35325;DHT22;35135;47.510;19.036;2022-07-23T08:26:15;31.10;41.60
35325;DHT22;35135;47.510;19.036;2022-07-23T08:28:43;31.10;41.20
35325;DHT22;35135;47.510;19.036;2022-07-23T08:31:17;31.10;40.90
35325;DHT22;35135;47.510;19.036;2022-07-23T08:33:47;31.10;41.30
35325;DHT22;35135;47.510;19.036;2022-07-23T08:36:16;31.10;41.00
35325;DHT22;35135;47.510;19.036;2022-07-23T08:38:44;31.10;40.70
35325;DHT22;35135;47.510;19.036;2022-07-23T08:41:12;31.20;40.80
35325;DHT22;35135;47.510;19.036;2022-07-23T08:43:43;31.20;40.70
35325;DHT22;35135;47.510;19.036;2022-07-23T08:46:13;31.20;41.50
35325;DHT22;35135;47.510;19.036;2022-07-23T08:48:48;31.20;41.40
35325;DHT22;35135;47.510;19.036;2022-07-23T08:51:17;31.20;41.40
35325;DHT22;35135;47.510;19.036;2022-07-23T08:53:51;31.20;40.90
35325;DHT22;35135;47.510;19.036;2022-07-23T08:56:19;31.20;40.80
35325;DHT22;35135;47.510;19.036;2022-07-23T08:58:54;31.20;40.80
35325;DHT22;35135;47.510;19.036;2022-07-23T09:01:24;31.20;40.70
35325;DHT22;35135;47.510;19.036;2022-07-23T09:03:56;31.20;40.60
35325;DHT22;35135;47.510;19.036;2022-07-23T09:06:25;31.20;40.50
35325;DHT22;35135;47.510;19.036;2022-07-23T09:08:54;31.20;40.50
35325;DHT22;35135;47.510;19.036;2022-07-23T09:11:27;31.20;40.50
35325;DHT22;35135;47.510;19.036;2022-07-23T09:13:54;31.30;40.90
35325;DHT22;35135;47.510;19.036;2022-07-23T09:16:35;31.30;40.50
35325;DHT22;35135;47.510;19.036;2022-07-23T09:19:05;31.30;41.20
35325;DHT22;35135;47.510;19.036;2022-07-23T09:21:40;31.30;40.80
35325;DHT22;35135;47.510;19.036;2022-07-23T09:24:12;31.30;41.50
35325;DHT22;35135;47.510;19.036;2022-07-23T09:26:48;31.30;40.90
35325;DHT22;35135;47.510;19.036;2022-07-23T09:29:23;31.30;41.00
35325;DHT22;35135;47.510;19.036;2022-07-23T09:31:59;31.30;40.80
35325;DHT22;35135;47.510;19.036;2022-07-23T09:34:32;31.30;42.10
35325;DHT22;35135;47.510;19.036;2022-07-23T09:37:18;31.30;40.80
35325;DHT22;35135;47.510;19.036;2022-07-23T09:39:47;31.30;40.80
35325;DHT22;35135;47.510;19.036;2022-07-23T09:42:20;31.40;40.90
35325;DHT22;35135;47.510;19.036;2022-07-23T09:44:50;31.30;40.70
35325;DHT22;35135;47.510;19.036;2022-07-23T09:47:20;31.40;40.70
35325;DHT22;35135;47.510;19.036;2022-07-23T09:52:35;31.40;40.60
35325;DHT22;35135;47.510;19.036;2022-07-23T09:55:07;31.40;40.60
35325;DHT22;35135;47.510;19.036;2022-07-23T09:57:41;31.40;40.50
35325;DHT22;35135;47.510;19.036;2022-07-23T10:00:11;31.40;40.10
35325;DHT22;35135;47.510;19.036;2022-07-23T10:02:41;31.40;40.20
35325;DHT22;35135;47.510;19.036;2022-07-23T10:05:10;31.40;40.80
35325;DHT22;35135;47.510;19.036;2022-07-23T10:07:40;31.40;40.60
35325;DHT22;35135;47.510;19.036;2022-07-23T10:10:08;31.40;40.10
35325;DHT22;35135;47.510;19.036;2022-07-23T10:12:37;31.40;40.40
35325;DHT22;35135;47.510;19.036;2022-07-23T10:15:27;31.50;40.40
35325;DHT22;35135;47.510;19.036;2022-07-23T10:18:01;31.50;40.10
35325;DHT22;35135;47.510;19.036;2022-07-23T10:20:28;31.40;39.80
35325;DHT22;35135;47.510;19.036;2022-07-23T10:23:27;31.50;39.90
35325;DHT22;35135;47.510;19.036;2022-07-23T10:31:56;31.50;41.30
35325;DHT22;35135;47.510;19.036;2022-07-23T10:37:36;31.50;40.70
35325;DHT22;35135;47.510;19.036;2022-07-23T10:40:21;31.50;40.80
35325;DHT22;35135;47.510;19.036;2022-07-23T10:42:51;31.50;40.80
35325;DHT22;35135;47.510;19.036;2022-07-23T10:45:36;31.50;41.10
35325;DHT22;35135;47.510;19.036;2022-07-23T10:48:23;31.60;41.20
35325;DHT22;35135;47.510;19.036;2022-07-23T10:51:13;31.60;41.00
35325;DHT22;35135;47.510;19.036;2022-07-23T10:59:18;31.60;41.20
35325;DHT22;35135;47.510;19.036;2022-07-23T11:01:47;31.60;41.40
35325;DHT22;35135;47.510;19.036;2022-07-23T11:04:16;31.60;40.90
35325;DHT22;35135;47.510;19.036;2022-07-23T11:09:40;31.70;42.60
35325;DHT22;35135;47.510;19.036;2022-07-23T11:15:10;31.70;40.90
35325;DHT22;35135;47.510;19.036;2022-07-23T11:18:00;31.60;40.50
35325;DHT22;35135;47.510;19.036;2022-07-23T11:20:30;31.70;41.10
35325;DHT22;35135;47.510;19.036;2022-07-23T11:22:58;31.70;42.50
35325;DHT22;35135;47.510;19.036;2022-07-23T11:25:33;31.70;40.90
35325;DHT22;35135;47.510;19.036;2022-07-23T11:28:16;31.70;40.60
35325;DHT22;35135;47.510;19.036;2022-07-23T11:30:45;31.70;40.30
35325;DHT22;35135;47.510;19.036;2022-07-23T11:35:44;31.70;40.00
35325;DHT22;35135;47.510;19.036;2022-07-23T11:38:23;31.70;42.80
35325;DHT22;35135;47.510;19.036;2022-07-23T11:40:55;31.70;41.40
35325;DHT22;35135;47.510;19.036;2022-07-23T11:43:26;31.70;41.40
35325;DHT22;35135;47.510;19.036;2022-07-23T11:45:59;31.70;40.30
35325;DHT22;35135;47.510;19.036;2022-07-23T11:48:29;31.70;39.60
35325;DHT22;35135;47.510;19.036;2022-07-23T11:50:57;31.80;40.40
35325;DHT22;35135;47.510;19.036;2022-07-23T11:53:29;31.80;39.60
35325;DHT22;35135;47.510;19.036;2022-07-23T11:56:06;31.80;39.30
35325;DHT22;35135;47.510;19.036;2022-07-23T11:58:34;31.80;39.50
35325;DHT22;35135;47.510;19.036;2022-07-23T12:01:03;31.80;40.00
35325;DHT22;35135;47.510;19.036;2022-07-23T12:03:32;31.80;40.70
35325;DHT22;35135;47.510;19.036;2022-07-23T12:05:59;31.80;40.00
35325;DHT22;35135;47.510;19.036;2022-07-23T12:08:28;31.80;39.90
35325;DHT22;35135;47.510;19.036;2022-07-23T12:10:57;31.80;41.00
35325;DHT22;35135;47.510;19.036;2022-07-23T12:13:26;31.80;40.50
35325;DHT22;35135;47.510;19.036;2022-07-23T12:15:57;31.80;40.10
35325;DHT22;35135;47.510;19.036;2022-07-23T12:18:25;31.90;40.60
35325;DHT22;35135;47.510;19.036;2022-07-23T12:20:55;31.90;40.90
35325;DHT22;35135;47.510;19.036;2022-07-23T12:23:25;31.90;41.40
35325;DHT22;35135;47.510;19.036;2022-07-23T12:26:03;31.90;41.40
35325;DHT22;35135;47.510;19.036;2022-07-23T12:28:31;31.90;41.10
35325;DHT22;35135;47.510;19.036;2022-07-23T12:31:00;31.90;40.50
35325;DHT22;35135;47.510;19.036;2022-07-23T12:33:39;31.90;40.20
35325;DHT22;35135;47.510;19.036;2022-07-23T12:36:09;31.90;40.30
35325;DHT22;35135;47.510;19.036;2022-07-23T12:38:42;31.90;40.20
35325;DHT22;35135;47.510;19.036;2022-07-23T12:41:11;32.00;40.50
35325;DHT22;35135;47.510;19.036;2022-07-23T12:43:41;32.00;39.80
35325;DHT22;35135;47.510;19.036;2022-07-23T12:46:16;32.00;39.80
35325;DHT22;35135;47.510;19.036;2022-07-23T12:51:27;32.00;41.20
35325;DHT22;35135;47.510;19.036;2022-07-23T12:54:07;32.00;40.80
35325;DHT22;35135;47.510;19.036;2022-07-23T12:56:37;32.00;41.10
35325;DHT22;35135;47.510;19.036;2022-07-23T12:59:09;32.10;41.70
35325;DHT22;35135;47.510;19.036;2022-07-23T13:01:39;32.10;41.30
35325;DHT22;35135;47.510;19.036;2022-07-23T13:04:21;32.10;41.80
35325;DHT22;35135;47.510;19.036;2022-07-23T13:06:53;32.10;41.70
35325;DHT22;35135;47.510;19.036;2022-07-23T13:09:25;32.10;41.60
35325;DHT22;35135;47.510;19.036;2022-07-23T13:11:56;32.10;41.80
35325;DHT22;35135;47.510;19.036;2022-07-23T13:14:25;32.10;41.80
35325;DHT22;35135;47.510;19.036;2022-07-23T13:16:54;32.10;41.60
35325;DHT22;35135;47.510;19.036;2022-07-23T13:19:26;32.10;42.00
35325;DHT22;35135;47.510;19.036;2022-07-23T13:21:55;32.10;42.50
35325;DHT22;35135;47.510;19.036;2022-07-23T13:24:28;32.10;42.20
35325;DHT22;35135;47.510;19.036;2022-07-23T13:26:58;32.20;42.70
35325;DHT22;35135;47.510;19.036;2022-07-23T13:29:25;32.20;42.80
35325;DHT22;35135;47.510;19.036;2022-07-23T13:31:54;32.20;42.60
35325;DHT22;35135;47.510;19.036;2022-07-23T13:34:26;32.10;42.00
35325;DHT22;35135;47.510;19.036;2022-07-23T13:36:58;32.20;41.90
35325;DHT22;35135;47.510;19.036;2022-07-23T13:39:32;32.20;42.50
35325;DHT22;35135;47.510;19.036;2022-07-23T13:42:00;32.20;43.10
35325;DHT22;35135;47.510;19.036;2022-07-23T13:44:33;32.20;42.80
35325;DHT22;35135;47.510;19.036;2022-07-23T13:47:02;32.20;42.50
35325;DHT22;35135;47.510;19.036;2022-07-23T13:49:39;32.20;42.40
35325;DHT22;35135;47.510;19.036;2022-07-23T13:52:11;32.20;43.30
35325;DHT22;35135;47.510;19.036;2022-07-23T13:54:43;32.20;42.70
35325;DHT22;35135;47.510;19.036;2022-07-23T13:57:17;32.20;42.90
35325;DHT22;35135;47.510;19.036;2022-07-23T13:59:45;32.20;42.60
35325;DHT22;35135;47.510;19.036;2022-07-23T14:02:15;32.20;42.30
35325;DHT22;35135;47.510;19.036;2022-07-23T14:04:44;32.20;42.30
35325;DHT22;35135;47.510;19.036;2022-07-23T14:07:14;32.20;43.00
35325;DHT22;35135;47.510;19.036;2022-07-23T14:09:48;32.20;43.20
35325;DHT22;35135;47.510;19.036;2022-07-23T14:12:18;32.20;43.60
35325;DHT22;35135;47.510;19.036;2022-07-23T14:14:48;32.30;43.30
35325;DHT22;35135;47.510;19.036;2022-07-23T14:17:17;32.20;43.10
35325;DHT22;35135;47.510;19.036;2022-07-23T14:19:45;32.30;43.00
35325;DHT22;35135;47.510;19.036;2022-07-23T14:22:12;32.30;43.00
35325;DHT22;35135;47.510;19.036;2022-07-23T14:24:41;32.20;42.80
35325;DHT22;35135;47.510;19.036;2022-07-23T14:27:10;32.30;43.20
35325;DHT22;35135;47.510;19.036;2022-07-23T14:29:36;32.30;42.80
35325;DHT22;35135;47.510;19.036;2022-07-23T14:32:04;32.30;42.60
35325;DHT22;35135;47.510;19.036;2022-07-23T14:34:32;32.30;42.70
35325;DHT22;35135;47.510;19.036;2022-07-23T14:37:00;32.30;42.40
35325;DHT22;35135;47.510;19.036;2022-07-23T14:39:29;32.30;42.40
35325;DHT22;35135;47.510;19.036;2022-07-23T14:41:59;32.30;42.60
35325;DHT22;35135;47.510;19.036;2022-07-23T14:44:29;32.30;42.80
35325;DHT22;35135;47.510;19.036;2022-07-23T14:46:56;32.30;42.80
35325;DHT22;35135;47.510;19.036;2022-07-23T14:49:27;32.30;42.80
35325;DHT22;35135;47.510;19.036;2022-07-23T14:51:56;32.30;42.90
35325;DHT22;35135;47.510;19.036;2022-07-23T14:54:30;32.30;42.90
35325;DHT22;35135;47.510;19.036;2022-07-23T14:57:00;32.30;42.30
35325;DHT22;35135;47.510;19.036;2022-07-23T14:59:29;32.30;38.50
35325;DHT22;35135;47.510;19.036;2022-07-23T15:01:57;32.30;36.50
35325;DHT22;35135;47.510;19.036;2022-07-23T15:04:25;32.30;37.10
35325;DHT22;35135;47.510;19.036;2022-07-23T15:06:54;32.30;35.60
35325;DHT22;35135;47.510;19.036;2022-07-23T15:09:23;32.30;35.10
35325;DHT22;35135;47.510;19.036;2022-07-23T15:11:53;32.30;35.00
35325;DHT22;35135;47.510;19.036;2022-07-23T15:14:22;32.30;34.50
35325;DHT22;35135;47.510;19.036;2022-07-23T15:16:50;32.30;34.20
35325;DHT22;35135;47.510;19.036;2022-07-23T15:19:18;32.40;34.00
35325;DHT22;35135;47.510;19.036;2022-07-23T15:21:45;32.40;34.00
35325;DHT22;35135;47.510;19.036;2022-07-23T15:24:13;32.40;34.00
35325;DHT22;35135;47.510;19.036;2022-07-23T15:26:42;32.40;34.30
35325;DHT22;35135;47.510;19.036;2022-07-23T15:29:11;32.40;33.60
35325;DHT22;35135;47.510;19.036;2022-07-23T15:31:41;32.40;34.10
35325;DHT22;35135;47.510;19.036;2022-07-23T15:34:10;32.40;34.00
35325;DHT22;35135;47.510;19.036;2022-07-23T15:36:37;32.40;34.60
35325;DHT22;35135;47.510;19.036;2022-07-23T15:39:05;32.50;33.30
35325;DHT22;35135;47.510;19.036;2022-07-23T15:41:43;32.50;34.10
35325;DHT22;35135;47.510;19.036;2022-07-23T15:44:12;32.50;34.60
35325;DHT22;35135;47.510;19.036;2022-07-23T15:46:39;32.50;35.40
35325;DHT22;35135;47.510;19.036;2022-07-23T15:49:12;32.40;36.30
35325;DHT22;35135;47.510;19.036;2022-07-23T15:51:44;32.50;36.70
35325;DHT22;35135;47.510;19.036;2022-07-23T15:54:11;32.50;37.40
35325;DHT22;35135;47.510;19.036;2022-07-23T15:56:46;32.40;37.40
35325;DHT22;35135;47.510;19.036;2022-07-23T15:59:22;32.40;37.90
35325;DHT22;35135;47.510;19.036;2022-07-23T16:01:52;32.40;38.20
35325;DHT22;35135;47.510;19.036;2022-07-23T16:04:22;32.40;38.60